Sunday, December 21, 2014
06:09 UTC
  |  Log In   |  Register Free
Airport Search:

Williamsburg-Jamestown Airport
(KJGG)

Williamsburg-Jamestown Airport Diagram
No Airport Diagram Available

FAA data valid effective November 13, 2014 - January 08, 2015 (unless otherwise noted).

 
 
 
 
 
 
 
 
 
 
 
 
 
 

Current Aviation Weather for Williamsburg-Jamestown Airport (KJGG)

The most recent METAR observation for KJGG was updated at: 2115
METAR Summary (Translated METAR)
KJGG
182055Z AUTO 30003KT 10SM CLR 09/M03 A3009 RMK AO1
KFAF
182058Z AUTO 29007KT 10SM CLR 07/M04 A3007 RMK AO2 SLP186 T00701037 $
(8.2 nm SE from KJGG)
KPHF
182054Z AUTO 31006KT 10SM CLR 08/M05 A3009 RMK AO2 SLP188 T00831050 56007 TSNO
(12.5 nm SE from KJGG)
TAF Summary (Translated TAF)
KFAF
(8.2 nm SE from KJGG)
1919/2101 32009KT 9999 FEW250 QNH3009INS BECMG 2013/2014 33006KT 9999 BKN120 QNH3027INS BECMG 2018/2019 34006KT 9999 BKN055 OVC100 620604 QNH3028INS TX09/1919Z TNM01/2010Z LAST NO AMDS AFT 2004 NEXT 2211
KPHF
(12.5 nm SE from KJGG)
210520Z 2106/2206 00000KT P6SM BKN080 FM211400 05005KT P6SM SKC
  Airport Weather Conditions for KJGG

 Current Weather at JGG
37° F
Overcast
North winds at 0.0 mph
JGG NOAA Radar

Pressure: 30.31 in
Humidity: 75%
Wind: Calm
Dew Point: 30.2°F
Visibility: 10.00 mi


Airport Weather Forecast for KJGG

Translated METAR and TAF for KJGG
Translated METAR for KJGG (0610 UTC 21 December 2014)
found at http://aviationweather.gov/adds/metars/
 
METAR text: KJGG 210555Z AUTO 00000KT 10SM OVC085 03/M01 A3030 RMK AO1
Conditions at: KJGG (WILLIAMSBURG , VA, US) observed 0555 UTC 21 December 2014
Temperature: 3.0°C (37°F)
Dewpoint: -1.0°C (30°F) [RH = 75%]
Pressure (altimeter): 30.30 inches Hg (1026.2 mb)
Winds: calm
Visibility: 10 or more miles (16+ km)
Ceiling: 8500 feet AGL
Clouds: overcast cloud deck at 8500 feet AGL
Weather: automated observation with no human augmentation;
there may or may not be significant weather present at this time
Translated TAF for KJGG

There is no translated TAF available for this airport

Find All Airport Services Find A Hotel Find A Rental Car Find A Golf Course Find A Restaurant $100 Hamburger



FBO's on the Field
FBO Company Facility Photos Services Transportation Aviation Fuel Prices: Prices include tax
Catering Weather Repair Courtesy Rental Type 100LL JetA JetA+ MOGAS 8087
 
Williamsburg-Jamestown

This FBO has not yet been rated
FS:Shell
Last Updated: Dec-08
Login to update fuel prices
SS:
Contact Williamsburg-JamestownMore FBO Information
 
Add another FBO Facility Photos Catering Weather Repair Courtesy Rental Type 100LL JetA JetA+ MOGAS 8087
Services Transportation Aviation Fuel Prices: Prices include tax


model-print
model-print
model-print
model-print